Vers la page d'accueil de NAV CANADA Ouverture d'une nouvelle session Chercher sur le site AWWS Clause de non-reponsabilité To the equivalent English page Trucs et astuces FAQ Quoi de neuf sur le site Vers la section Prévisions et observations / NOTAM Vers le site web pour <<Déposer un plan de vol>> Publications et liens importants Mise à jour du profil d'usager Numéros de téléphone des FIC Mes données météo personnelles Données météo de route Données météo régionales Données météo locales Vers la section Prévisions et observations / NOTAM
Requête générée le 2021/04/12 à 04:02:10 UTC. L'information météorologique disponible à ce moment est affichée.

METAR/TAF

Si vous notez des différences entre le METAR/TAF codé et le METAR/TAF en langage clair, veuillez utiliser la version codée. Les bulletins LWIS ne sont pas décodés en langage clair.

MONTREAL/PIERRE-ELLIOTT-TRUDEAU INTL/QC    

METAR CYUL 120400Z 04018G26KT 15SM BKN240 09/01 A2975 RMK CI7 SLP076=
METAR
LIEU
CYUL - MONTREAL/PIERRE-ELLIOTT-TRUDEAU INT
DATE - HEURE
12 AVRIL 2021 - 0400 UTC
VENT
40 VRAIS @ 18  NOEUDS
RAFALES
26 NOEUDS
VISIBILITE
15 MILLES TERR.
PORTEE VISUELLE DE PISTE
METEO
NEBULOSITE
NUAGES FRAGMENTES (5/8 - 7/8) 24000  PI
TEMP / PT DE ROSEE
9 C / 1 C
ALTIMETRE
29.75 PO HG
TEMPS RECENT
CISAILLEMENT

METAR CYUL 120300Z 04020G26KT 15SM BKN075 BKN240 10/01 A2973 RMK AC5CC2 SLP070=
METAR
LIEU
CYUL - MONTREAL/PIERRE-ELLIOTT-TRUDEAU INT
DATE - HEURE
12 AVRIL 2021 - 0300 UTC
VENT
40 VRAIS @ 20  NOEUDS
RAFALES
26 NOEUDS
VISIBILITE
15 MILLES TERR.
PORTEE VISUELLE DE PISTE
METEO
NEBULOSITE
NUAGES FRAGMENTES (5/8 - 7/8) 7500  PI
NUAGES FRAGMENTES (5/8 - 7/8) 24000  PI
TEMP / PT DE ROSEE
10 C / 1 C
ALTIMETRE
29.73 PO HG
TEMPS RECENT
CISAILLEMENT

METAR CYUL 120200Z 04020G26KT 15SM BKN067 11/01 A2972 RMK AC6 SLP067=
METAR
LIEU
CYUL - MONTREAL/PIERRE-ELLIOTT-TRUDEAU INT
DATE - HEURE
12 AVRIL 2021 - 0200 UTC
VENT
40 VRAIS @ 20  NOEUDS
RAFALES
26 NOEUDS
VISIBILITE
15 MILLES TERR.
PORTEE VISUELLE DE PISTE
METEO
NEBULOSITE
NUAGES FRAGMENTES (5/8 - 7/8) 6700  PI
TEMP / PT DE ROSEE
11 C / 1 C
ALTIMETRE
29.72 PO HG
TEMPS RECENT
CISAILLEMENT

TAF CYUL 120238Z 1203/1224 04015G25KT P6SM BKN060 OVC240 FM120700 05012G22KT P6SM SCT050 BKN240 FM121200 06015G25KT P6SM FEW020 BKN040 OVC240 RMK NXT FCST BY 120600Z=
TAF
LIEU

CYUL - MONTREAL/PIERRE-ELLIOTT-TRUDEAU INTL/QC
VALIDITE [UTC]
12 APR - 0238 à
13 APR - 0000
 
PERIODES
[UTC]
VENT
[DEGRES VRAIS]
VISIBILITE
[MILLES TERR.]
METEO
NEBULOSITE
[PIEDS AGL]
 
12 APR - 0300 à
12 APR - 0700
40 @ 15 NOEUDS
RAFALES 25 NOEUDS
6+
---
6000 FRAGMENTES
24000 CIEL COUVERT
 
12 APR - 0700 à
12 APR - 1200
50 @ 12 NOEUDS
RAFALES 22 NOEUDS
6+
---
5000 EPARS
24000 FRAGMENTES
 
12 APR - 1200 à
13 APR - 0000
60 @ 15 NOEUDS
RAFALES 25 NOEUDS
6+
---
2000 QUELQUES
24000 QUELQUES
4000 FRAGMENTES
24000 CIEL COUVERT
REMARQUES
LA PREVISION SUIVANTE SERA EMISE POUR 0600 UTC LE 12


Votre heure Heure UTC
Données météorologiques fournies par Environnement Canada et NAV CANADA